Warning: Javascript must be enabled to use all the features on this page!


Page Loading - Please Wait...

Click to hideNews Bulletins

Peak Streamflow for Idaho

Click to hide state-specific text

USGS 13185000 BOISE RIVER NR TWIN SPRINGS ID

Boise County, Idaho
Hydrologic Unit Code 17050112
Latitude  43°40'05", Longitude 115°43'31" NAD83
Drainage area 832  square miles
Gage datum 3,340 feet above NGVD29
Output formats
Table
Graph
Tab-separated file
peakfq (watstore) format
Reselect output format
Water
Year
Date Gage
Height
(feet)
Stream-
flow
(cfs)
1871 1871-06   19,6002,Bd
1872 1872-06   22,7002,7,Bd
1911 1911-06-13 7.203 7,5601
1912 1912-06-13 7.403 7,9001
1913 1913-05-28 7.003 7,2201
1914 1914-05-23 6.003 5,5201
1915 1915-04-19 4.622 3,140
1916 1916-06-19 7.373 8,530
1917 1917-05-15 7.823 9,430
1918 1918-06-14 7.103 7,990
1919 1919-05-29 7.503 8,790
1920 1920-05-17 6.043 5,840
1921 1921-06-12 7.673 9,210
1922 1922-06-07 7.103 7,860
1923 1923-05-26 6.233 6,0801
1924 1924-05-17 4.513 3,000
1925 1925-05-20 6.693 7,060
1926 1926-05-05 5.293 4,250
1927 1927-05-17 8.303 10,300
1928 1928-05-10 7.933 9,400
1929 1929-05-24 5.813 5,320
1930 1930-05-29 4.972,3 3,860
1931 1931-05-07 4.523 3,020
1932 1932-05-14 6.873 7,460
1933 1933-06-16 6.913 7,260
1934 1934-03-28 4.963 3,680
1935 1935-05-24 5.673 4,970
1936 1936-04-23 7.703 8,880
1937 1937-05-05 4.943 3,610
1938 1938-05-01 7.633 8,730
1939 1939-04-30 5.423 4,290
1940 1940-05-12 5.893 5,210
1941 1941-05-27 5.723 4,830
1942 1942-05-26 6.213 6,240
1943 1943-04-17 7.823 8,920
1944 1944-05-15 5.303 3,800
1945 1945-05-05 6.183 5,600
1946 1946-04-19 7.183 7,560
1947 1947-05-09 7.163 7,670
1948 1948-05-28 7.413 8,210
1949 1949-05-16 6.783 6,990
1950 1950-05-24 6.643 6,570
1951 1951-05-28 6.983 7,290
1952 1952-04-28 7.963 9,210
1953 1953-06-13 7.813 9,090
1954 1954-05-21 7.573 8,560
1955 1955-06-10 6.493 6,270
1956 1956-05-24 8.762,3 11,200
1957 1957-05-19 7.483 8,730
1958 1958-05-21 8.403 10,700
1959 1959-05-14 5.713 5,160
1960 1960-05-13 6.373 6,280
1961 1961-05-26 5.553 4,750
1962 1962-04-20 5.943 5,530
1963 1963-05-24 6.092,3 5,710
1964 1964-05-21 6.153 5,990
1965 1964-12-23 12.203 18,800
1966 1966-05-07 7.22 4,240
1967 1967-05-24 9.35 7,800
1968 1968-06-03 7.09 3,950
1969 1969-05-15 8.73 6,860
1970 1970-05-27 9.01 7,460
1971 1971-05-13 9.43 8,700
1972 1972-06-02 9.85 10,100
1973 1973-05-19 7.53 5,760
1974 1974-06-16 9.80 10,300
1975 1975-05-16 9.25 8,760
1976 1976-05-11 8.57 7,310
1977 1977-06-08 4.95 1,490
1978 1978-06-10 7.99 6,280
1979 1979-05-24 7.34 5,180
1980 1980-05-06 7.96 6,220
1981 1981-06-09 8.57 7,670
1982 1982-05-25 8.92 8,100
1983 1983-05-30 10.20 11,200
1984 1984-05-15 9.69 10,300
1985 1985-05-04 7.32 4,490
1986 1986-06-01 9.66 9,760
1987 1987-05-01 6.78 3,530
1988 1988-05-25 6.85 3,400
1989 1989-04-22 8.19 6,200
1990 1990-04-28 7.44 4,640
1991 1991-06-12 6.91 3,480
1992 1992-05-09 6.17 2,420
1993 1993-05-15 9.66 9,330
1994 1994-05-13 6.69 3,080
1995 1995-06-05 8.46 6,620
1996 1996-05-15 10.08 10,200
1997 1997-01-01 10.81 12,800
1998 1998-05-27 8.14 6,360
1999 1999-05-26 9.31 8,400
2000 2000-05-25 7.17 4,830
2001 2001-05-15 6.56 3,850
2002 2002-04-14 9.61 8,960
2003 2003-05-30 9.70 9,130
2004 2004-06-06 6.45 3,760
2005 2005-05-19 8.88 6,830
2006 2006-05-21 10.71 11,300
2007 2007-05-13 7.35 3,810
2008 2008-05-19 10.20 9,790
2009 2009-05-20 8.69 6,820
2010 2010-06-05 10.79 11,300
2011 2011-05-16 12.54 11,200
2012 2012-04-27 13.84 15,200
2013 2013-05-14 9.94 4,850
2014 2014-05-28 10.99 7,060
2015 2015-02-09 9.64 4,310
2016 2016-04-13 10.37 5,780
2017 2017-05-07 13.09 13,100
2018 2018-05-10 10.55 6,110
2019 2019-04-09 12.49 11,100
2020 2020-05-31 10.41 5,640
?
  Peak Gage-Height Qualification Codes.
?
  Peak Streamflow Qualification Codes.